Time;durP1;ratioP1;P1;durP2;ratioP2;P2;SDS_P1;SDS_P2;PMS_P1;PMS_P2;Temp;Humidity;BMP_temperature;BMP_pressure;BME280_temperature;BME280_humidity;BME280_pressure;Samples;Min_cycle;Max_cycle;Signal;HPM_P1;HPM_P2
2021/04/29 00:00:42;;;;;;;7.03;5.53;;;;;;;;;;5097687;28;20261;-71
2021/04/29 00:03:09;;;;;;;7.83;5.13;;;;;;;;;;5097253;28;20241;-71
2021/04/29 00:05:37;;;;;;;9.93;5.63;;;;;;;;;;5097319;28;20237;-71
2021/04/29 00:08:04;;;;;;;11.43;5.83;;;;;;;;;;5097530;28;20293;-70
2021/04/29 00:10:33;;;;;;;6.37;5.10;;;;;;;;;;5097335;28;20209;-71
2021/04/29 00:13:00;;;;;;;5.97;4.77;;;;;;;;;;5097231;28;20251;-71
2021/04/29 00:15:27;;;;;;;5.77;4.90;;;;;;;;;;5097545;28;20257;-70
2021/04/29 00:17:54;;;;;;;7.03;5.23;;;;;;;;;;5097247;28;20289;-70
2021/04/29 00:20:22;;;;;;;7.63;5.57;;;;;;;;;;5097613;28;20205;-70
2021/04/29 00:22:50;;;;;;;7.53;5.77;;;;;;;;;;5097663;28;20300;-70
2021/04/29 00:25:17;;;;;;;7.83;5.70;;;;;;;;;;5097122;28;20748;-70
2021/04/29 00:27:45;;;;;;;7.37;5.60;;;;;;;;;;5097439;28;20289;-71
2021/04/29 00:30:13;;;;;;;8.40;5.60;;;;;;;;;;5097449;28;20288;-71
2021/04/29 00:32:40;;;;;;;5.33;4.83;;;;;;;;;;5100371;28;20209;-71
2021/04/29 00:42:03;;;;;;;7.83;5.67;;;;;;;;;;5100931;28;20289;-71
2021/04/29 00:44:32;;;;;;;9.27;6.17;;;;;;;;;;5100670;28;20239;-71
2021/04/29 00:47:00;;;;;;;8.33;5.23;;;;;;;;;;5100652;28;20243;-71
2021/04/29 00:49:27;;;;;;;6.77;5.37;;;;;;;;;;5100224;28;20237;-71
2021/04/29 00:51:54;;;;;;;9.13;6.10;;;;;;;;;;5100913;28;20209;-71
2021/04/29 00:54:21;;;;;;;6.30;5.70;;;;;;;;;;5100734;28;20227;-71
2021/04/29 00:56:48;;;;;;;7.17;5.47;;;;;;;;;;5100424;28;20237;-71
2021/04/29 00:59:15;;;;;;;6.93;6.00;;;;;;;;;;5100479;28;20296;-71
2021/04/29 01:01:45;;;;;;;6.90;5.43;;;;;;;;;;5100769;28;20235;-71
2021/04/29 01:04:15;;;;;;;6.57;5.43;;;;;;;;;;5099965;28;20738;-71
2021/04/29 01:06:43;;;;;;;7.97;5.70;;;;;;;;;;5100681;28;20269;-71
2021/04/29 01:09:12;;;;;;;6.17;5.27;;;;;;;;;;5100406;28;20237;-71
2021/04/29 01:11:40;;;;;;;10.57;5.90;;;;;;;;;;5100817;28;20653;-71
2021/04/29 01:14:10;;;;;;;6.53;5.80;;;;;;;;;;5100075;28;20690;-71
2021/04/29 01:16:38;;;;;;;7.50;5.97;;;;;;;;;;5100389;28;20248;-71
2021/04/29 01:19:08;;;;;;;7.10;5.67;;;;;;;;;;5099918;28;20259;-71
2021/04/29 01:21:36;;;;;;;7.13;5.60;;;;;;;;;;5100117;28;20292;-70
2021/04/29 01:24:05;;;;;;;8.57;6.40;;;;;;;;;;5100178;28;20289;-70
2021/04/29 01:26:44;;;;;;;8.77;6.80;;;;;;;;;;5100106;28;20210;-70
2021/04/29 01:29:13;;;;;;;8.60;6.03;;;;;;;;;;5099976;28;20716;-69
2021/04/29 01:31:42;;;;;;;8.37;6.90;;;;;;;;;;5100156;28;20274;-70
2021/04/29 01:34:11;;;;;;;6.90;6.20;;;;;;;;;;5099638;28;20240;-70
2021/04/29 01:36:39;;;;;;;10.27;6.60;;;;;;;;;;5099745;28;20550;-70
2021/04/29 01:39:07;;;;;;;9.20;6.97;;;;;;;;;;5100004;28;20269;-70
2021/04/29 01:41:37;;;;;;;8.63;6.80;;;;;;;;;;5099563;28;20240;-70
2021/04/29 01:44:06;;;;;;;9.00;6.80;;;;;;;;;;5098751;28;20261;-70
2021/04/29 01:46:33;;;;;;;7.80;6.83;;;;;;;;;;5099726;28;20728;-70
2021/04/29 01:49:01;;;;;;;9.17;6.97;;;;;;;;;;5099463;28;20242;-70
2021/04/29 01:51:28;;;;;;;9.27;7.70;;;;;;;;;;5099570;28;20615;-72
2021/04/29 01:53:55;;;;;;;9.80;7.37;;;;;;;;;;5099684;28;20233;-69
2021/04/29 01:56:22;;;;;;;8.20;7.27;;;;;;;;;;5099503;28;20316;-70
2021/04/29 01:58:49;;;;;;;9.47;6.80;;;;;;;;;;5099309;28;20206;-64
2021/04/29 02:01:17;;;;;;;7.97;7.03;;;;;;;;;;5099308;28;20653;-67
2021/04/29 02:03:44;;;;;;;8.40;6.73;;;;;;;;;;5099070;28;20260;-69
2021/04/29 02:06:11;;;;;;;9.23;7.07;;;;;;;;;;5099452;28;20229;-69
2021/04/29 02:08:38;;;;;;;9.33;7.13;;;;;;;;;;5099099;28;20568;-70
2021/04/29 02:11:05;;;;;;;10.13;7.63;;;;;;;;;;5099042;28;20259;-67
2021/04/29 02:13:33;;;;;;;9.77;6.87;;;;;;;;;;5098842;28;20673;-70
2021/04/29 02:16:02;;;;;;;10.00;7.83;;;;;;;;;;5098871;28;20308;-70
2021/04/29 02:18:30;;;;;;;10.87;7.77;;;;;;;;;;5097811;28;20201;-67
2021/04/29 02:20:59;;;;;;;11.03;7.80;;;;;;;;;;5098171;28;20323;-70
2021/04/29 02:23:28;;;;;;;9.43;7.23;;;;;;;;;;5095747;28;20201;-67
2021/04/29 02:25:56;;;;;;;10.80;7.43;;;;;;;;;;5098312;28;20221;-69
2021/04/29 02:28:24;;;;;;;10.63;8.57;;;;;;;;;;5097168;28;20280;-70
2021/04/29 02:30:51;;;;;;;11.23;8.23;;;;;;;;;;5097578;28;20225;-69
2021/04/29 02:33:18;;;;;;;13.53;8.43;;;;;;;;;;5098237;28;20233;-69
2021/04/29 02:35:46;;;;;;;13.07;8.33;;;;;;;;;;5098240;28;20217;-69
2021/04/29 02:38:14;;;;;;;12.27;8.10;;;;;;;;;;5098036;28;20211;-69
2021/04/29 02:40:42;;;;;;;12.43;10.03;;;;;;;;;;5098345;28;20225;-69
2021/04/29 02:43:11;;;;;;;14.97;10.07;;;;;;;;;;5098159;28;20236;-69
2021/04/29 02:45:38;;;;;;;13.90;10.20;;;;;;;;;;5096731;28;20217;-69
2021/04/29 02:48:06;;;;;;;15.33;10.63;;;;;;;;;;5096718;28;20687;-69
2021/04/29 02:50:33;;;;;;;18.87;11.97;;;;;;;;;;5096980;28;20284;-68
2021/04/29 02:53:01;;;;;;;14.87;9.67;;;;;;;;;;5097237;28;20237;-68
2021/04/29 02:55:28;;;;;;;13.93;9.87;;;;;;;;;;5094607;28;20731;-68
2021/04/29 02:58:02;;;;;;;13.73;8.97;;;;;;;;;;5097347;28;20260;-68
2021/04/29 03:00:29;;;;;;;10.93;8.63;;;;;;;;;;5094843;28;20212;-68
2021/04/29 03:02:56;;;;;;;11.77;8.60;;;;;;;;;;5096576;28;20620;-68
2021/04/29 03:05:23;;;;;;;10.40;8.67;;;;;;;;;;5096489;28;20747;-68
2021/04/29 03:07:50;;;;;;;12.13;9.20;;;;;;;;;;5096775;28;20276;-68
2021/04/29 03:10:18;;;;;;;11.43;9.40;;;;;;;;;;5096914;28;20280;-68
2021/04/29 03:12:46;;;;;;;10.97;8.73;;;;;;;;;;5096854;28;20198;-68
2021/04/29 03:15:13;;;;;;;10.80;8.63;;;;;;;;;;5096653;28;20253;-67
2021/04/29 03:17:40;;;;;;;10.33;8.50;;;;;;;;;;5096593;28;20284;-67
2021/04/29 03:20:27;;;;;;;11.00;8.37;;;;;;;;;;5096112;28;20205;-68
2021/04/29 03:22:54;;;;;;;11.30;9.13;;;;;;;;;;5097351;28;20244;-68
2021/04/29 03:25:22;;;;;;;11.20;9.03;;;;;;;;;;5097119;28;20268;-68
2021/04/29 03:27:49;;;;;;;11.33;8.93;;;;;;;;;;5098039;28;20265;-68
2021/04/29 03:30:17;;;;;;;13.57;9.37;;;;;;;;;;5097967;28;20215;-66
2021/04/29 03:32:45;;;;;;;10.60;9.40;;;;;;;;;;5097805;28;20296;-68
2021/04/29 03:35:13;;;;;;;12.10;9.17;;;;;;;;;;5097582;28;20693;-68
2021/04/29 03:37:40;;;;;;;13.13;9.47;;;;;;;;;;5097997;28;20232;-68
2021/04/29 03:40:07;;;;;;;11.43;8.73;;;;;;;;;;5099525;28;20288;-68
2021/04/29 03:42:35;;;;;;;12.20;9.73;;;;;;;;;;5099463;28;20241;-67
2021/04/29 03:45:03;;;;;;;13.47;9.63;;;;;;;;;;5098135;28;20229;-68
2021/04/29 03:47:30;;;;;;;11.40;8.90;;;;;;;;;;5093801;28;20264;-68
2021/04/29 03:49:57;;;;;;;11.07;8.83;;;;;;;;;;5097332;28;20208;-68
2021/04/29 03:52:24;;;;;;;11.57;9.10;;;;;;;;;;5097395;28;20626;-68
2021/04/29 03:54:51;;;;;;;12.20;9.00;;;;;;;;;;5097740;28;20716;-68
2021/04/29 03:57:18;;;;;;;12.10;9.07;;;;;;;;;;5097535;28;20280;-68
2021/04/29 03:59:46;;;;;;;10.63;9.27;;;;;;;;;;5097738;28;20240;-68
2021/04/29 04:02:13;;;;;;;12.40;9.10;;;;;;;;;;5097507;28;20236;-68
2021/04/29 04:04:40;;;;;;;14.37;10.23;;;;;;;;;;5096962;28;20252;-68
2021/04/29 04:07:07;;;;;;;12.63;10.17;;;;;;;;;;5094837;28;20263;-68
2021/04/29 04:09:34;;;;;;;13.90;9.70;;;;;;;;;;5101458;28;20292;-68
2021/04/29 04:12:01;;;;;;;14.63;10.30;;;;;;;;;;5101034;28;20661;-69
2021/04/29 04:14:33;;;;;;;12.90;10.03;;;;;;;;;;5101283;28;20217;-68
2021/04/29 04:17:01;;;;;;;13.93;9.73;;;;;;;;;;5101815;28;20212;-68
2021/04/29 04:19:28;;;;;;;13.90;10.10;;;;;;;;;;5101335;28;20220;-68
2021/04/29 04:21:56;;;;;;;13.23;9.50;;;;;;;;;;5101299;28;20205;-69
2021/04/29 04:24:23;;;;;;;11.23;9.20;;;;;;;;;;5101329;28;20316;-68
2021/04/29 04:26:49;;;;;;;14.03;10.23;;;;;;;;;;5100959;28;20716;-68
2021/04/29 04:29:16;;;;;;;12.03;9.57;;;;;;;;;;5101375;28;20237;-69
2021/04/29 04:31:43;;;;;;;14.73;11.23;;;;;;;;;;5101122;28;20258;-68
2021/04/29 04:34:12;;;;;;;15.63;11.03;;;;;;;;;;5100560;28;20273;-67
2021/04/29 04:36:38;;;;;;;11.77;10.10;;;;;;;;;;5100964;28;20645;-68
2021/04/29 04:39:06;;;;;;;13.07;10.47;;;;;;;;;;5100933;28;20288;-67
2021/04/29 04:41:33;;;;;;;11.53;9.80;;;;;;;;;;5100720;28;20261;-69
2021/04/29 04:43:59;;;;;;;12.30;9.97;;;;;;;;;;5100975;28;20764;-68
2021/04/29 04:46:26;;;;;;;12.40;10.27;;;;;;;;;;5100647;28;20708;-66
2021/04/29 04:48:53;;;;;;;16.43;11.40;;;;;;;;;;5100699;28;20209;-68
2021/04/29 04:51:22;;;;;;;12.33;10.50;;;;;;;;;;5101157;28;20210;-68
2021/04/29 04:53:49;;;;;;;12.73;10.50;;;;;;;;;;5100929;28;20269;-67
2021/04/29 04:56:16;;;;;;;14.93;10.83;;;;;;;;;;5100387;28;20309;-68
2021/04/29 04:58:43;;;;;;;15.63;12.80;;;;;;;;;;5100457;28;20259;-68
2021/04/29 05:01:10;;;;;;;15.50;12.43;;;;;;;;;;5100539;28;20609;-69
2021/04/29 05:03:37;;;;;;;14.97;12.27;;;;;;;;;;5100352;28;20244;-68
2021/04/29 05:06:05;;;;;;;17.97;13.13;;;;;;;;;;5100544;28;20233;-68
2021/04/29 05:08:32;;;;;;;15.80;12.73;;;;;;;;;;5100496;28;20244;-67
2021/04/29 05:10:59;;;;;;;18.23;13.87;;;;;;;;;;5100505;28;20233;-68
2021/04/29 05:13:26;;;;;;;19.30;13.67;;;;;;;;;;5100149;28;20296;-68
2021/04/29 05:15:53;;;;;;;17.40;12.80;;;;;;;;;;5100236;28;20308;-68
2021/04/29 05:18:20;;;;;;;17.73;13.07;;;;;;;;;;5100022;28;21094;-67
2021/04/29 05:20:47;;;;;;;17.30;12.57;;;;;;;;;;5100426;28;20288;-68
2021/04/29 05:23:14;;;;;;;16.67;12.37;;;;;;;;;;5100063;28;20929;-69
2021/04/29 05:25:42;;;;;;;15.57;11.80;;;;;;;;;;5100360;28;20312;-67
2021/04/29 05:28:09;;;;;;;15.47;11.93;;;;;;;;;;5099781;28;20619;-68
2021/04/29 05:30:36;;;;;;;18.97;12.73;;;;;;;;;;5100266;28;20300;-68
2021/04/29 05:33:03;;;;;;;15.77;11.67;;;;;;;;;;5099513;28;20293;-68
2021/04/29 05:35:30;;;;;;;13.03;10.50;;;;;;;;;;5099713;28;20271;-67
2021/04/29 05:37:57;;;;;;;13.07;11.23;;;;;;;;;;5098428;28;20233;-67
2021/04/29 05:40:24;;;;;;;14.53;11.70;;;;;;;;;;5096258;28;20236;-68
2021/04/29 05:42:52;;;;;;;19.83;12.33;;;;;;;;;;5098519;28;20726;-67
2021/04/29 05:45:19;;;;;;;18.13;12.27;;;;;;;;;;5098390;28;20256;-67
2021/04/29 05:47:46;;;;;;;15.57;12.03;;;;;;;;;;5097857;28;20297;-68
2021/04/29 05:50:14;;;;;;;16.80;13.90;;;;;;;;;;5098532;28;20198;-67
2021/04/29 05:52:40;;;;;;;12.77;10.70;;;;;;;;;;5098499;28;20228;-67
2021/04/29 05:55:08;;;;;;;16.03;11.07;;;;;;;;;;5098321;28;20221;-67
2021/04/29 05:57:35;;;;;;;15.07;11.33;;;;;;;;;;5098103;28;20206;-67
2021/04/29 06:00:04;;;;;;;15.30;11.00;;;;;;;;;;5098297;28;20240;-67
2021/04/29 06:02:31;;;;;;;16.30;11.93;;;;;;;;;;5095762;28;20276;-67
2021/04/29 06:04:58;;;;;;;15.87;10.90;;;;;;;;;;5097753;28;20221;-67
2021/04/29 06:07:25;;;;;;;14.20;11.10;;;;;;;;;;5097897;28;20292;-67
2021/04/29 06:09:52;;;;;;;12.80;10.57;;;;;;;;;;5097964;28;20198;-67
2021/04/29 06:12:19;;;;;;;19.80;11.03;;;;;;;;;;5097949;28;20285;-67
2021/04/29 06:14:46;;;;;;;12.80;10.67;;;;;;;;;;5098535;28;20334;-68
2021/04/29 06:17:14;;;;;;;16.03;10.70;;;;;;;;;;5098579;28;20252;-67
2021/04/29 06:19:41;;;;;;;13.53;9.93;;;;;;;;;;5098438;28;20672;-66
2021/04/29 06:22:09;;;;;;;13.40;10.53;;;;;;;;;;5099097;28;20214;-65
2021/04/29 06:24:36;;;;;;;13.70;10.47;;;;;;;;;;5099020;28;20309;-67
2021/04/29 06:27:03;;;;;;;14.93;12.47;;;;;;;;;;5106883;28;20201;-67
2021/04/29 06:29:31;;;;;;;16.17;10.67;;;;;;;;;;5104760;28;20209;-66
2021/04/29 06:31:58;;;;;;;14.87;11.00;;;;;;;;;;5104659;28;20198;-66
2021/04/29 06:34:26;;;;;;;17.00;12.67;;;;;;;;;;5098272;28;20700;-66
2021/04/29 06:36:54;;;;;;;13.33;9.97;;;;;;;;;;5106836;28;20562;-67
2021/04/29 06:39:21;;;;;;;15.03;11.70;;;;;;;;;;5109620;28;20200;-67
2021/04/29 06:41:48;;;;;;;16.30;10.70;;;;;;;;;;5098727;28;20202;-67
2021/04/29 06:44:15;;;;;;;13.03;10.10;;;;;;;;;;5098253;28;20233;-67
2021/04/29 06:46:45;;;;;;;15.17;11.17;;;;;;;;;;5098435;28;20241;-67
2021/04/29 06:49:13;;;;;;;13.37;10.67;;;;;;;;;;5098036;28;20312;-67
2021/04/29 06:51:41;;;;;;;13.63;10.37;;;;;;;;;;5098556;28;20692;-67
2021/04/29 06:54:08;;;;;;;14.67;11.00;;;;;;;;;;5098455;28;20251;-67
2021/04/29 06:56:35;;;;;;;14.97;11.27;;;;;;;;;;5098137;28;20211;-67
2021/04/29 06:59:02;;;;;;;15.73;11.00;;;;;;;;;;5093876;28;20237;-70
2021/04/29 07:01:30;;;;;;;16.13;11.03;;;;;;;;;;5083073;28;20286;-70
2021/04/29 07:03:58;;;;;;;16.83;10.40;;;;;;;;;;5094794;28;20263;-67
2021/04/29 07:06:25;;;;;;;11.80;9.30;;;;;;;;;;5098002;28;20221;-68
2021/04/29 07:08:57;;;;;;;11.63;8.97;;;;;;;;;;5097649;28;20213;-68
2021/04/29 07:11:24;;;;;;;10.97;9.50;;;;;;;;;;5094674;28;20212;-67
2021/04/29 07:13:51;;;;;;;11.27;8.93;;;;;;;;;;5099951;28;20231;-67
2021/04/29 07:16:18;;;;;;;12.27;8.97;;;;;;;;;;5105403;28;20225;-69
2021/04/29 07:18:45;;;;;;;11.73;9.20;;;;;;;;;;5107215;28;20679;-69
2021/04/29 07:21:12;;;;;;;10.73;9.20;;;;;;;;;;5102952;28;20312;-69
2021/04/29 07:23:39;;;;;;;11.80;9.47;;;;;;;;;;5097816;28;20232;-69
2021/04/29 07:26:07;;;;;;;12.93;8.77;;;;;;;;;;5097760;28;20271;-69
2021/04/29 07:28:36;;;;;;;12.47;9.63;;;;;;;;;;5097690;28;20693;-69
2021/04/29 07:31:03;;;;;;;13.13;9.90;;;;;;;;;;5098352;28;20259;-69
2021/04/29 07:33:30;;;;;;;10.93;8.27;;;;;;;;;;5108045;28;20205;-69
2021/04/29 07:35:58;;;;;;;17.87;9.77;;;;;;;;;;5107267;28;20295;-69
2021/04/29 07:38:25;;;;;;;11.30;8.77;;;;;;;;;;5107160;28;20564;-69
2021/04/29 07:40:52;;;;;;;10.20;8.70;;;;;;;;;;5097919;28;20202;-67
2021/04/29 07:43:20;;;;;;;10.83;8.70;;;;;;;;;;5101859;28;20232;-68
2021/04/29 07:45:46;;;;;;;10.50;8.27;;;;;;;;;;5101276;28;20715;-67
2021/04/29 07:48:13;;;;;;;11.50;8.30;;;;;;;;;;5101229;28;20232;-67
2021/04/29 07:50:40;;;;;;;9.50;7.37;;;;;;;;;;5108094;28;20258;-67
2021/04/29 07:53:08;;;;;;;9.73;7.23;;;;;;;;;;5110196;28;20214;-67
2021/04/29 07:55:36;;;;;;;10.37;7.00;;;;;;;;;;5107281;28;20252;-67
2021/04/29 07:58:03;;;;;;;11.40;7.10;;;;;;;;;;5101174;28;20311;-67
2021/04/29 08:00:51;;;;;;;12.10;6.90;;;;;;;;;;5101560;28;20201;-67
2021/04/29 08:03:18;;;;;;;7.50;6.70;;;;;;;;;;5101048;28;20308;-67
2021/04/29 08:05:46;;;;;;;7.77;6.97;;;;;;;;;;5101087;28;20229;-66
2021/04/29 08:08:13;;;;;;;8.67;7.20;;;;;;;;;;5101570;28;20210;-66
2021/04/29 08:10:44;;;;;;;9.93;8.10;;;;;;;;;;5093572;28;20615;-69
2021/04/29 08:13:11;;;;;;;9.70;6.57;;;;;;;;;;5101206;28;20229;-66
2021/04/29 08:15:40;;;;;;;10.30;7.10;;;;;;;;;;5100918;28;20217;-66
2021/04/29 08:18:08;;;;;;;8.50;6.53;;;;;;;;;;5101012;28;20217;-66
2021/04/29 08:20:35;;;;;;;10.37;7.17;;;;;;;;;;5110651;28;20197;-66
2021/04/29 08:23:02;;;;;;;11.30;8.30;;;;;;;;;;5108889;28;20196;-69
2021/04/29 08:25:29;;;;;;;10.37;5.67;;;;;;;;;;5105665;28;20256;-66
2021/04/29 08:27:56;;;;;;;8.43;6.13;;;;;;;;;;5102308;28;20252;-67
2021/04/29 08:30:27;;;;;;;7.70;5.40;;;;;;;;;;5100966;28;20213;-67
2021/04/29 08:32:55;;;;;;;9.07;5.40;;;;;;;;;;5100718;28;20204;-67
2021/04/29 08:35:23;;;;;;;8.50;5.50;;;;;;;;;;5099690;28;20250;-66
2021/04/29 08:37:51;;;;;;;7.23;5.30;;;;;;;;;;5100663;28;20269;-67
2021/04/29 08:40:19;;;;;;;7.23;5.77;;;;;;;;;;5100360;28;20680;-66
2021/04/29 08:42:47;;;;;;;8.93;5.73;;;;;;;;;;5100826;28;20213;-67
2021/04/29 08:45:15;;;;;;;11.07;9.17;;;;;;;;;;5100382;28;20269;-68
2021/04/29 08:47:43;;;;;;;15.97;11.17;;;;;;;;;;5100137;28;20369;-68
2021/04/29 08:50:14;;;;;;;14.87;11.87;;;;;;;;;;5100699;28;20230;-68
2021/04/29 08:52:42;;;;;;;12.83;10.37;;;;;;;;;;5100034;28;20773;-67
2021/04/29 08:55:14;;;;;;;12.47;9.60;;;;;;;;;;5089476;28;20277;-65
2021/04/29 08:57:43;;;;;;;13.03;10.17;;;;;;;;;;5100332;28;20220;-68
2021/04/29 09:00:10;;;;;;;12.60;9.80;;;;;;;;;;5100264;28;20288;-68
2021/04/29 09:02:38;;;;;;;12.23;10.17;;;;;;;;;;5099975;28;20280;-67
2021/04/29 09:05:15;;;;;;;14.07;11.73;;;;;;;;;;5100238;28;20233;-67
2021/04/29 09:07:53;;;;;;;18.27;13.53;;;;;;;;;;5100362;28;20216;-67
2021/04/29 09:10:27;;;;;;;17.00;13.50;;;;;;;;;;5100238;28;20232;-67
2021/04/29 09:12:54;;;;;;;18.47;14.67;;;;;;;;;;5099687;28;20213;-67
2021/04/29 09:15:22;;;;;;;16.33;14.27;;;;;;;;;;5100160;28;20308;-69
2021/04/29 09:17:51;;;;;;;18.03;14.60;;;;;;;;;;5106477;28;20289;-66
2021/04/29 09:20:21;;;;;;;16.00;14.30;;;;;;;;;;5104458;28;20204;-67
2021/04/29 09:22:58;;;;;;;14.90;13.07;;;;;;;;;;5106744;28;20251;-67
2021/04/29 09:25:26;;;;;;;14.63;12.67;;;;;;;;;;5107617;28;20625;-66
2021/04/29 09:27:53;;;;;;;14.30;12.50;;;;;;;;;;5106084;28;20687;-67
2021/04/29 09:30:23;;;;;;;14.83;13.07;;;;;;;;;;5106429;28;20197;-67
2021/04/29 09:32:50;;;;;;;13.03;11.73;;;;;;;;;;5107344;28;20653;-67
2021/04/29 09:35:18;;;;;;;13.83;12.33;;;;;;;;;;5110090;28;20240;-68
2021/04/29 09:37:45;;;;;;;14.43;12.33;;;;;;;;;;5106958;28;20633;-67
2021/04/29 09:40:20;;;;;;;16.83;12.50;;;;;;;;;;5103127;28;20204;-68
2021/04/29 09:42:48;;;;;;;16.00;11.73;;;;;;;;;;5099449;28;20209;-69
2021/04/29 09:45:20;;;;;;;13.80;11.27;;;;;;;;;;5104482;28;20221;-68
2021/04/29 09:47:54;;;;;;;12.40;10.63;;;;;;;;;;5085907;28;20230;-67
2021/04/29 09:50:25;;;;;;;14.77;10.47;;;;;;;;;;5105501;28;20227;-68
2021/04/29 09:53:02;;;;;;;16.30;10.17;;;;;;;;;;5107609;28;20637;-68
2021/04/29 09:55:30;;;;;;;10.47;8.63;;;;;;;;;;5097712;28;20658;-69
2021/04/29 09:58:14;;;;;;;9.57;8.23;;;;;;;;;;5099154;28;20237;-71
2021/04/29 10:00:41;;;;;;;10.50;8.80;;;;;;;;;;5099016;28;20211;-69
2021/04/29 10:03:09;;;;;;;14.30;9.13;;;;;;;;;;5098955;28;20231;-68
2021/04/29 10:05:38;;;;;;;14.23;9.50;;;;;;;;;;5098039;28;20234;-68
2021/04/29 10:08:05;;;;;;;10.50;8.83;;;;;;;;;;5098975;28;20728;-66
2021/04/29 10:10:34;;;;;;;8.97;7.80;;;;;;;;;;5091706;28;20572;-66
2021/04/29 10:13:03;;;;;;;8.30;7.47;;;;;;;;;;5093384;28;20281;-67
2021/04/29 10:15:32;;;;;;;10.07;8.13;;;;;;;;;;5098854;28;20264;-66
2021/04/29 10:17:59;;;;;;;12.17;7.40;;;;;;;;;;5098714;28;20245;-68
2021/04/29 10:20:27;;;;;;;10.23;8.33;;;;;;;;;;5100112;28;20240;-66
2021/04/29 10:22:54;;;;;;;11.47;8.37;;;;;;;;;;5107705;28;20201;-66
2021/04/29 10:25:31;;;;;;;8.27;7.13;;;;;;;;;;5102889;28;20311;-66
2021/04/29 10:28:00;;;;;;;11.47;7.07;;;;;;;;;;5107322;28;20205;-66
2021/04/29 10:30:31;;;;;;;6.77;5.83;;;;;;;;;;5098487;28;20274;-66
2021/04/29 10:32:58;;;;;;;7.90;6.90;;;;;;;;;;5098071;28;20712;-66
2021/04/29 10:35:27;;;;;;;7.03;5.83;;;;;;;;;;5098300;28;20217;-66
2021/04/29 10:37:55;;;;;;;9.43;6.20;;;;;;;;;;5098638;28;20237;-66
2021/04/29 10:40:35;;;;;;;7.80;5.40;;;;;;;;;;5098335;28;20212;-67
2021/04/29 10:43:03;;;;;;;7.67;6.97;;;;;;;;;;5098350;28;20236;-67
2021/04/29 10:45:31;;;;;;;9.43;6.77;;;;;;;;;;5098340;28;20324;-66
2021/04/29 10:48:15;;;;;;;8.63;6.87;;;;;;;;;;5097818;28;20242;-66
2021/04/29 10:50:43;;;;;;;7.27;6.40;;;;;;;;;;5098144;28;20284;-65
2021/04/29 10:53:12;;;;;;;7.60;6.70;;;;;;;;;;5098447;28;20236;-67
2021/04/29 10:55:43;;;;;;;14.07;6.77;;;;;;;;;;5098251;28;20221;-67
2021/04/29 10:58:22;;;;;;;9.73;7.07;;;;;;;;;;5098049;28;20260;-68
2021/04/29 11:01:10;;;;;;;8.20;6.60;;;;;;;;;;5097872;28;20645;-67
2021/04/29 11:03:38;;;;;;;10.10;6.43;;;;;;;;;;5091630;28;20291;-66
2021/04/29 11:06:06;;;;;;;8.43;7.10;;;;;;;;;;5098089;28;20298;-67
2021/04/29 11:08:34;;;;;;;9.80;7.43;;;;;;;;;;5084464;28;20306;-66
2021/04/29 11:11:04;;;;;;;9.33;7.07;;;;;;;;;;5087090;28;20289;-67
2021/04/29 11:13:32;;;;;;;11.20;7.50;;;;;;;;;;5098120;28;20697;-67
2021/04/29 11:16:01;;;;;;;8.80;7.03;;;;;;;;;;5105745;28;20299;-67
2021/04/29 11:18:28;;;;;;;11.17;7.37;;;;;;;;;;5105544;28;20277;-66
2021/04/29 11:21:05;;;;;;;12.47;8.30;;;;;;;;;;5110593;28;20205;-66
2021/04/29 11:23:38;;;;;;;9.77;8.67;;;;;;;;;;5096421;28;20288;-66
2021/04/29 11:26:05;;;;;;;14.27;9.20;;;;;;;;;;5086663;28;20260;-66
2021/04/29 11:28:33;;;;;;;15.27;9.90;;;;;;;;;;5097167;28;20255;-65
2021/04/29 11:31:00;;;;;;;15.00;10.80;;;;;;;;;;5097326;28;20292;-66
2021/04/29 11:33:31;;;;;;;12.90;10.67;;;;;;;;;;5097217;28;20213;-66
2021/04/29 11:35:58;;;;;;;13.00;10.77;;;;;;;;;;5097262;28;20282;-66
2021/04/29 11:38:26;;;;;;;13.07;10.77;;;;;;;;;;5097150;28;20668;-66
2021/04/29 11:40:53;;;;;;;15.53;12.17;;;;;;;;;;5097253;28;20288;-66
2021/04/29 11:43:22;;;;;;;14.77;11.20;;;;;;;;;;5096975;28;20684;-66
2021/04/29 11:45:51;;;;;;;17.27;12.03;;;;;;;;;;5096919;28;20229;-66
2021/04/29 11:48:22;;;;;;;15.07;11.13;;;;;;;;;;5097009;28;20201;-66
2021/04/29 11:50:51;;;;;;;14.20;10.80;;;;;;;;;;5097186;28;20334;-66
2021/04/29 11:53:19;;;;;;;17.87;12.93;;;;;;;;;;5097357;28;20243;-66
2021/04/29 11:55:48;;;;;;;15.07;13.47;;;;;;;;;;5105047;28;20734;-66
2021/04/29 11:58:15;;;;;;;19.70;12.20;;;;;;;;;;5092617;28;20206;-69
2021/04/29 12:00:43;;;;;;;16.97;11.90;;;;;;;;;;5103755;28;20653;-66
2021/04/29 12:03:12;;;;;;;14.23;10.93;;;;;;;;;;5107547;28;20201;-65
2021/04/29 12:05:40;;;;;;;17.67;11.67;;;;;;;;;;5096787;28;20316;-66
2021/04/29 12:08:09;;;;;;;15.87;11.23;;;;;;;;;;5096737;28;20289;-66
2021/04/29 12:10:47;;;;;;;16.87;12.40;;;;;;;;;;5097259;28;20236;-66
2021/04/29 12:13:14;;;;;;;12.53;11.13;;;;;;;;;;5097265;28;20205;-67
2021/04/29 12:15:42;;;;;;;10.53;9.37;;;;;;;;;;5097524;28;20285;-66
2021/04/29 12:18:11;;;;;;;12.50;9.57;;;;;;;;;;5097734;28;20213;-67
2021/04/29 12:20:38;;;;;;;11.97;9.10;;;;;;;;;;5097648;28;20237;-66
2021/04/29 12:23:07;;;;;;;12.37;10.10;;;;;;;;;;5097110;28;20741;-66
2021/04/29 12:25:34;;;;;;;12.13;10.10;;;;;;;;;;5086735;28;20305;-66
2021/04/29 12:28:11;;;;;;;12.77;9.90;;;;;;;;;;5096876;28;20235;-66
2021/04/29 12:30:38;;;;;;;11.87;9.80;;;;;;;;;;5100919;28;20269;-66
2021/04/29 12:33:14;;;;;;;13.40;10.23;;;;;;;;;;5100448;28;20657;-66
2021/04/29 12:35:42;;;;;;;9.90;8.90;;;;;;;;;;5100821;28;20221;-67
2021/04/29 12:38:11;;;;;;;11.30;8.23;;;;;;;;;;5100832;28;20244;-66
2021/04/29 12:40:38;;;;;;;11.93;9.17;;;;;;;;;;5100311;28;20684;-66
2021/04/29 12:43:13;;;;;;;10.07;8.50;;;;;;;;;;5100421;28;20233;-66
2021/04/29 12:45:49;;;;;;;10.87;9.57;;;;;;;;;;5099005;28;20583;-66
2021/04/29 12:48:24;;;;;;;11.40;9.73;;;;;;;;;;5097746;28;20197;-66
2021/04/29 12:51:15;;;;;;;10.90;8.77;;;;;;;;;;5096975;28;20231;-66
2021/04/29 12:53:51;;;;;;;11.93;9.20;;;;;;;;;;5086314;28;20702;-66
2021/04/29 12:56:23;;;;;;;12.83;8.97;;;;;;;;;;5097997;28;20250;-65
2021/04/29 12:58:50;;;;;;;11.60;8.10;;;;;;;;;;5099756;28;20197;-65
2021/04/29 13:01:19;;;;;;;8.50;7.60;;;;;;;;;;5099646;28;20630;-66
2021/04/29 13:03:47;;;;;;;15.03;8.23;;;;;;;;;;5099884;28;20209;-66
2021/04/29 13:06:14;;;;;;;11.73;7.50;;;;;;;;;;5099275;28;20688;-65
2021/04/29 13:08:48;;;;;;;11.73;6.67;;;;;;;;;;5099797;28;20620;-67
2021/04/29 13:11:27;;;;;;;8.47;6.70;;;;;;;;;;5089961;28;20292;-70
2021/04/29 13:13:59;;;;;;;7.23;5.97;;;;;;;;;;5100020;28;20284;-68
2021/04/29 13:16:27;;;;;;;7.43;5.97;;;;;;;;;;5099598;28;20629;-68
2021/04/29 13:18:56;;;;;;;6.63;5.87;;;;;;;;;;5099273;28;20303;-67
2021/04/29 13:21:23;;;;;;;8.87;5.60;;;;;;;;;;5099713;28;20202;-67
2021/04/29 13:23:50;;;;;;;6.47;5.73;;;;;;;;;;5099223;28;20209;-68
2021/04/29 13:26:17;;;;;;;7.83;5.57;;;;;;;;;;5089763;28;20236;-66
2021/04/29 13:28:44;;;;;;;23.47;5.67;;;;;;;;;;5099648;28;20205;-67
2021/04/29 13:31:11;;;;;;;6.27;4.97;;;;;;;;;;5099563;28;20288;-67
2021/04/29 13:33:38;;;;;;;6.73;4.40;;;;;;;;;;5099245;28;20293;-67
2021/04/29 13:36:06;;;;;;;9.17;4.33;;;;;;;;;;5099360;28;20217;-67
2021/04/29 13:38:33;;;;;;;6.27;4.47;;;;;;;;;;5098641;28;20206;-67
2021/04/29 13:41:00;;;;;;;10.57;4.63;;;;;;;;;;5099047;28;20665;-68
2021/04/29 13:43:27;;;;;;;4.83;3.83;;;;;;;;;;5097548;28;20659;-67
2021/04/29 13:45:54;;;;;;;7.47;2.90;;;;;;;;;;5096985;28;20241;-67
2021/04/29 13:48:21;;;;;;;4.23;2.73;;;;;;;;;;5097185;28;20240;-68
2021/04/29 13:50:48;;;;;;;2.93;2.67;;;;;;;;;;5097969;28;20209;-67
2021/04/29 13:53:16;;;;;;;4.10;2.83;;;;;;;;;;5099094;28;20235;-65
2021/04/29 13:55:43;;;;;;;4.57;2.40;;;;;;;;;;5098851;28;20712;-65
2021/04/29 13:58:10;;;;;;;4.50;2.30;;;;;;;;;;5099071;28;20297;-66
2021/04/29 14:00:38;;;;;;;2.93;2.20;;;;;;;;;;5098633;28;20631;-66
2021/04/29 14:03:05;;;;;;;3.37;2.30;;;;;;;;;;5098520;28;20622;-66
2021/04/29 14:05:33;;;;;;;3.17;2.30;;;;;;;;;;5098826;28;20232;-67
2021/04/29 14:08:00;;;;;;;2.10;1.97;;;;;;;;;;5098934;28;20270;-67
2021/04/29 14:10:28;;;;;;;4.27;2.53;;;;;;;;;;5098452;28;20233;-66
2021/04/29 14:12:55;;;;;;;3.40;2.07;;;;;;;;;;5098711;28;20236;-68
2021/04/29 14:15:22;;;;;;;2.53;2.07;;;;;;;;;;5098748;28;20226;-65
2021/04/29 14:17:49;;;;;;;4.60;2.53;;;;;;;;;;5098529;28;20293;-65
2021/04/29 14:20:16;;;;;;;5.33;2.20;;;;;;;;;;5098719;28;20244;-68
2021/04/29 14:22:44;;;;;;;8.53;2.63;;;;;;;;;;5098685;28;20236;-66
2021/04/29 14:25:11;;;;;;;2.20;2.00;;;;;;;;;;5091198;28;20317;-67
2021/04/29 14:27:39;;;;;;;5.90;2.33;;;;;;;;;;5092083;28;20290;-67
2021/04/29 14:30:07;;;;;;;2.17;1.73;;;;;;;;;;5098536;28;20293;-67
2021/04/29 14:32:35;;;;;;;4.70;1.83;;;;;;;;;;5105756;28;20293;-66
2021/04/29 14:35:03;;;;;;;5.50;2.43;;;;;;;;;;5105864;28;20563;-68
2021/04/29 14:37:30;;;;;;;3.43;2.07;;;;;;;;;;5108033;28;20208;-68
2021/04/29 14:39:57;;;;;;;3.73;2.00;;;;;;;;;;5108224;28;20404;-68
2021/04/29 14:42:32;;;;;;;3.73;2.20;;;;;;;;;;5105766;28;20213;-67
2021/04/29 14:45:00;;;;;;;3.70;2.10;;;;;;;;;;5098238;28;20320;-67